Time;durP1;ratioP1;P1;durP2;ratioP2;P2;SDS_P1;SDS_P2;PMS_P1;PMS_P2;Temp;Humidity;BMP_temperature;BMP_pressure;BME280_temperature;BME280_humidity;BME280_pressure;Samples;Min_cycle;Max_cycle;Signal;HPM_P1;HPM_P2
2021/12/21 00:00:58;;;;;;;4.65;3.92;;;-1.50;99.90;;;;;;491347;242;27419;-75
2021/12/21 00:02:59;;;;;;;7.03;3.80;;;-1.50;99.90;;;;;;491365;241;27444;-75
2021/12/21 00:05:01;;;;;;;6.80;3.70;;;-1.50;99.90;;;;;;491380;242;27342;-75
2021/12/21 00:07:02;;;;;;;4.93;3.00;;;-1.50;99.90;;;;;;491350;242;27337;-75
2021/12/21 00:09:03;;;;;;;4.60;3.53;;;-1.50;99.90;;;;;;491361;242;27511;-75
2021/12/21 00:11:04;;;;;;;5.90;4.18;;;-1.50;99.90;;;;;;491325;241;27335;-75
2021/12/21 00:13:09;;;;;;;8.02;3.50;;;-1.50;99.90;;;;;;491397;242;27888;-75
2021/12/21 00:17:32;;;;;;;4.72;3.47;;;-1.60;99.90;;;;;;493027;240;27418;-74
2021/12/21 00:21:41;;;;;;;4.95;3.33;;;-1.90;99.90;;;;;;493729;241;27247;-74
2021/12/21 00:23:46;;;;;;;5.30;3.37;;;-2.00;99.90;;;;;;493505;241;27259;-74
2021/12/21 00:25:41;;;;;;;5.03;3.62;;;-2.00;99.90;;;;;;493294;241;27910;-74
2021/12/21 00:27:44;;;;;;;5.80;3.67;;;-2.00;99.90;;;;;;493744;241;27819;-74
2021/12/21 00:29:43;;;;;;;7.55;3.47;;;-2.00;99.90;;;;;;493621;241;28806;-74
2021/12/21 00:31:44;;;;;;;3.67;3.37;;;-2.10;99.90;;;;;;493725;241;27485;-74
2021/12/21 00:33:47;;;;;;;3.60;3.30;;;-2.10;99.90;;;;;;493755;241;27133;-73
2021/12/21 00:35:47;;;;;;;7.18;4.25;;;-2.20;99.90;;;;;;491288;234;27489;-74
2021/12/21 00:37:49;;;;;;;7.87;3.50;;;;;;;;;;479699;248;27567;-74
2021/12/21 00:39:51;;;;;;;4.12;3.65;;;-2.30;99.90;;;;;;488983;243;27035;-74
2021/12/21 00:41:52;;;;;;;3.75;3.20;;;-2.30;99.90;;;;;;488960;243;27068;-73
2021/12/21 00:43:53;;;;;;;3.85;3.30;;;-2.20;99.90;;;;;;488985;243;27377;-74
2021/12/21 00:45:54;;;;;;;3.87;3.42;;;-2.20;99.90;;;;;;485364;239;27494;-74
2021/12/21 00:47:56;;;;;;;6.53;3.80;;;-2.30;99.90;;;;;;477817;249;27253;-74
2021/12/21 00:50:02;;;;;;;5.53;3.70;;;-2.20;99.90;;;;;;478305;248;27244;-75
2021/12/21 00:52:01;;;;;;;6.43;3.85;;;-2.30;99.90;;;;;;485118;245;27309;-75
2021/12/21 00:54:02;;;;;;;5.95;2.85;;;-2.30;99.90;;;;;;485355;245;27710;-74
2021/12/21 00:56:04;;;;;;;4.82;3.20;;;-2.20;99.90;;;;;;484995;235;27661;-73
2021/12/21 00:58:05;;;;;;;4.55;3.45;;;-2.20;99.90;;;;;;484218;245;27771;-74
2021/12/21 01:00:06;;;;;;;3.67;3.30;;;-2.20;99.90;;;;;;484265;245;28842;-74
2021/12/21 01:02:08;;;;;;;3.87;3.45;;;-2.20;99.90;;;;;;484294;245;27285;-73
2021/12/21 01:04:16;;;;;;;3.42;3.12;;;-2.20;99.90;;;;;;484376;245;27269;-74
2021/12/21 01:06:20;;;;;;;5.68;3.55;;;-2.30;99.90;;;;;;483901;234;27542;-74
2021/12/21 01:08:18;;;;;;;5.72;3.87;;;-2.20;99.90;;;;;;484271;245;27143;-74
2021/12/21 01:17:49;;;;;;;5.10;3.28;;;-2.30;99.90;;;;;;483159;237;28993;-73
2021/12/21 01:19:06;;;;;;;7.12;3.65;;;-2.30;99.90;;;;;;475010;246;27232;-74
2021/12/21 01:21:11;;;;;;;4.05;3.65;;;-2.30;99.90;;;;;;474185;250;27800;-74
2021/12/21 01:23:28;;;;;;;4.78;3.47;;;-2.30;99.90;;;;;;473732;250;27412;-74
2021/12/21 01:27:38;;;;;;;3.22;2.92;;;-2.40;99.90;;;;;;478249;248;27458;-73
2021/12/21 01:29:45;;;;;;;4.20;3.80;;;-2.40;99.90;;;;;;478080;248;27207;-74
2021/12/21 01:31:46;;;;;;;6.75;3.80;;;-2.50;99.90;;;;;;478053;248;27415;-73
2021/12/21 01:35:47;;;;;;;3.85;3.30;;;-2.50;99.90;;;;;;478240;248;27870;-73
2021/12/21 01:38:02;;;;;;;4.45;3.45;;;-2.60;99.90;;;;;;474392;249;27935;-73
2021/12/21 01:40:21;;;;;;;3.80;3.50;;;-2.60;99.90;;;;;;478242;248;27563;-74
2021/12/21 01:42:25;;;;;;;5.43;3.75;;;-2.60;99.90;;;;;;478227;248;27731;-73
2021/12/21 01:44:36;;;;;;;4.10;3.60;;;-2.60;99.90;;;;;;477918;248;27284;-74
2021/12/21 01:50:55;;;;;;;5.22;3.50;;;-2.70;99.90;;;;;;478258;248;27434;-73
2021/12/21 01:52:57;;;;;;;8.68;3.97;;;-2.80;99.90;;;;;;478233;248;27220;-73
2021/12/21 01:54:58;;;;;;;5.18;3.70;;;-2.70;99.90;;;;;;478300;248;27111;-74
2021/12/21 01:56:59;;;;;;;4.75;3.55;;;-2.70;99.90;;;;;;478305;248;27189;-74
2021/12/21 01:59:00;;;;;;;9.38;4.32;;;-2.80;99.90;;;;;;478246;248;27238;-74
2021/12/21 02:01:02;;;;;;;11.55;4.90;;;-2.80;99.90;;;;;;478213;248;26975;-73
2021/12/21 02:03:03;;;;;;;9.30;3.90;;;-2.70;99.90;;;;;;478219;248;27096;-73
2021/12/21 02:05:04;;;;;;;4.65;3.70;;;-2.70;99.90;;;;;;478298;247;27741;-73
2021/12/21 02:07:05;;;;;;;6.00;3.70;;;-2.70;99.90;;;;;;487588;235;28588;-74
2021/12/21 02:09:08;;;;;;;6.50;4.60;;;;;;;;;;487255;243;28555;-73
2021/12/21 02:11:09;;;;;;;4.07;3.67;;;-2.90;99.90;;;;;;487269;243;26442;-73
2021/12/21 02:13:10;;;;;;;7.45;3.50;;;-2.90;99.90;;;;;;487277;243;27335;-73
2021/12/21 02:19:38;;;;;;;4.10;3.70;;;-2.90;99.90;;;;;;479421;248;27510;-73
2021/12/21 02:21:40;;;;;;;6.75;3.83;;;-2.90;99.90;;;;;;478985;248;27019;-74
2021/12/21 02:23:38;;;;;;;4.35;3.72;;;-2.90;99.90;;;;;;478966;248;27226;-73
2021/12/21 02:25:58;;;;;;;4.47;3.30;;;-2.80;99.90;;;;;;479170;248;27109;-74
2021/12/21 02:27:53;;;;;;;4.37;3.65;;;;;;;;;;467481;253;27107;-73
2021/12/21 02:29:42;;;;;;;3.65;3.35;;;-2.70;99.90;;;;;;478046;248;26737;-73
2021/12/21 02:31:44;;;;;;;3.03;2.75;;;-2.80;99.90;;;;;;478876;248;27795;-74
2021/12/21 02:33:47;;;;;;;5.50;3.35;;;-2.90;99.90;;;;;;478898;248;28881;-74
2021/12/21 02:35:46;;;;;;;6.95;3.50;;;-3.00;99.90;;;;;;480160;241;27090;-74
2021/12/21 02:37:47;;;;;;;4.32;3.85;;;-3.10;99.90;;;;;;483687;244;27205;-74
2021/12/21 02:39:49;;;;;;;5.57;3.60;;;-3.10;99.90;;;;;;483699;245;27159;-74
2021/12/21 02:41:50;;;;;;;4.47;3.62;;;-3.10;99.90;;;;;;483700;244;26995;-74
2021/12/21 02:43:54;;;;;;;4.53;3.85;;;;;;;;;;483713;244;26998;-74
2021/12/21 02:45:55;;;;;;;5.78;4.47;;;;;;;;;;483599;246;26534;-73
2021/12/21 02:47:56;;;;;;;4.72;3.83;;;-3.10;99.90;;;;;;483679;246;26648;-73
2021/12/21 02:49:57;;;;;;;5.57;4.12;;;-3.10;99.90;;;;;;483695;244;27362;-73
2021/12/21 02:51:58;;;;;;;7.40;3.92;;;-3.00;99.90;;;;;;483684;244;27825;-73
2021/12/21 02:54:00;;;;;;;10.23;4.30;;;-3.00;99.90;;;;;;483665;244;27547;-74
2021/12/21 02:56:02;;;;;;;5.00;4.20;;;;;;;;;;479879;241;27084;-74
2021/12/21 02:58:04;;;;;;;4.68;3.58;;;-3.10;99.90;;;;;;464755;256;26649;-74
2021/12/21 03:00:05;;;;;;;7.55;4.20;;;-3.10;99.90;;;;;;473124;251;27159;-74
2021/12/21 03:02:06;;;;;;;7.32;4.18;;;-3.10;99.90;;;;;;466461;255;27916;-73
2021/12/21 03:04:08;;;;;;;5.45;3.55;;;-3.10;99.90;;;;;;473450;251;27675;-74
2021/12/21 03:06:15;;;;;;;4.50;3.90;;;-3.00;99.90;;;;;;479964;239;27002;-73
2021/12/21 03:08:15;;;;;;;8.07;3.78;;;-3.10;99.90;;;;;;484718;245;27042;-74
2021/12/21 03:10:15;;;;;;;4.62;3.83;;;;;;;;;;484791;245;27151;-73
2021/12/21 03:12:29;;;;;;;3.40;3.12;;;-3.10;99.90;;;;;;485006;245;27076;-73
2021/12/21 03:14:15;;;;;;;5.10;3.75;;;-3.00;99.90;;;;;;483980;245;27836;-73
2021/12/21 03:16:17;;;;;;;8.40;4.30;;;;;;;;;;481714;241;27101;-74
2021/12/21 03:18:18;;;;;;;4.43;3.45;;;-3.00;99.90;;;;;;479855;248;26679;-73
2021/12/21 03:20:21;;;;;;;4.90;3.50;;;;;;;;;;473835;251;27093;-74
2021/12/21 03:22:23;;;;;;;4.37;3.65;;;;;;;;;;473883;251;26566;-73
2021/12/21 03:24:25;;;;;;;4.82;3.65;;;-3.00;99.90;;;;;;473856;251;26767;-73
2021/12/21 03:26:27;;;;;;;3.42;3.12;;;;;;;;;;477133;244;27119;-74
2021/12/21 03:28:28;;;;;;;5.60;3.45;;;-2.90;99.90;;;;;;480707;247;27484;-74
2021/12/21 03:30:31;;;;;;;3.10;2.90;;;;;;;;;;480714;245;27469;-74
2021/12/21 03:32:32;;;;;;;3.83;3.22;;;-2.90;99.90;;;;;;480690;247;26511;-74
2021/12/21 03:34:33;;;;;;;5.85;3.20;;;-2.80;99.90;;;;;;480680;245;27639;-74
2021/12/21 03:36:34;;;;;;;3.37;3.05;;;-2.80;99.90;;;;;;480720;245;27665;-74
2021/12/21 03:38:37;;;;;;;4.57;3.15;;;-2.80;99.90;;;;;;480706;245;27521;-74
2021/12/21 03:40:38;;;;;;;4.62;3.47;;;;;;;;;;480636;247;27298;-74
2021/12/21 03:42:39;;;;;;;2.80;2.60;;;-2.90;99.90;;;;;;480709;247;26624;-74
2021/12/21 03:44:41;;;;;;;2.67;2.50;;;-2.90;99.90;;;;;;480699;245;27126;-74
2021/12/21 03:46:48;;;;;;;3.05;2.85;;;-3.10;99.90;;;;;;480732;245;27759;-74
2021/12/21 03:48:44;;;;;;;3.45;2.85;;;-3.20;99.90;;;;;;479927;247;28750;-74
2021/12/21 03:50:44;;;;;;;3.25;2.95;;;-3.10;99.90;;;;;;480631;245;27597;-74
2021/12/21 03:52:46;;;;;;;5.53;3.05;;;-3.10;99.90;;;;;;480687;245;27072;-74
2021/12/21 03:54:47;;;;;;;7.90;2.70;;;-3.10;99.90;;;;;;480604;245;27266;-73
2021/12/21 03:56:51;;;;;;;3.65;2.80;;;;;;;;;;480736;245;27236;-73
2021/12/21 03:58:51;;;;;;;3.15;2.85;;;-3.00;99.90;;;;;;480562;247;28246;-74
2021/12/21 04:00:52;;;;;;;4.15;3.05;;;-3.00;99.90;;;;;;480647;245;27528;-73
2021/12/21 04:02:54;;;;;;;3.30;3.00;;;;;;;;;;480724;245;27511;-73
2021/12/21 04:04:58;;;;;;;7.45;3.40;;;-3.00;99.90;;;;;;480692;247;26724;-74
2021/12/21 04:06:58;;;;;;;3.78;3.30;;;;;;;;;;480525;247;28105;-74
2021/12/21 04:08:59;;;;;;;4.93;3.53;;;-3.00;99.90;;;;;;480701;247;26770;-74
2021/12/21 04:11:02;;;;;;;5.82;3.42;;;;;;;;;;480756;245;27127;-75
2021/12/21 04:13:03;;;;;;;3.30;3.00;;;-3.00;99.90;;;;;;480721;247;26604;-75
2021/12/21 04:15:04;;;;;;;4.47;3.10;;;-3.00;99.90;;;;;;480709;245;27184;-73
2021/12/21 04:17:07;;;;;;;6.65;3.22;;;;;;;;;;480772;245;27179;-73
2021/12/21 04:19:08;;;;;;;7.40;3.85;;;-3.00;99.90;;;;;;480655;247;27687;-74
2021/12/21 04:21:12;;;;;;;7.18;3.70;;;;;;;;;;480698;245;27643;-74
2021/12/21 04:23:11;;;;;;;5.15;3.55;;;-3.00;99.90;;;;;;480664;247;26640;-74
2021/12/21 04:25:13;;;;;;;3.75;3.45;;;-2.90;99.90;;;;;;480719;247;27086;-74
2021/12/21 04:27:15;;;;;;;4.30;3.35;;;;;;;;;;480697;245;27107;-74
2021/12/21 04:29:16;;;;;;;6.35;3.60;;;-3.00;99.90;;;;;;480580;247;26670;-74
2021/12/21 04:31:18;;;;;;;5.32;3.90;;;-3.00;99.90;;;;;;480727;245;27297;-74
2021/12/21 04:33:20;;;;;;;5.93;3.60;;;;;;;;;;480720;245;27301;-74
2021/12/21 04:35:23;;;;;;;3.78;3.40;;;;;;;;;;480695;247;27182;-74
2021/12/21 04:37:25;;;;;;;3.60;3.25;;;-2.90;99.90;;;;;;480710;247;26723;-73
2021/12/21 04:39:35;;;;;;;4.97;3.70;;;-2.90;99.90;;;;;;480672;245;27330;-74
2021/12/21 04:41:28;;;;;;;5.65;3.25;;;-3.10;99.90;;;;;;479738;247;27674;-74
2021/12/21 04:43:27;;;;;;;4.20;3.00;;;-3.10;99.90;;;;;;480653;247;28054;-74
2021/12/21 04:45:30;;;;;;;5.22;3.03;;;;;;;;;;480704;245;27686;-73
2021/12/21 04:47:31;;;;;;;3.45;3.03;;;-3.20;99.90;;;;;;480718;247;26655;-74
2021/12/21 04:49:34;;;;;;;5.65;3.70;;;;;;;;;;480699;245;27385;-74
2021/12/21 04:51:36;;;;;;;5.87;3.45;;;;;;;;;;480701;247;26651;-73
2021/12/21 04:53:37;;;;;;;3.97;3.40;;;-3.20;99.90;;;;;;480689;247;27129;-74
2021/12/21 04:55:39;;;;;;;6.07;3.78;;;-3.20;99.90;;;;;;480727;245;27706;-74
2021/12/21 04:57:41;;;;;;;8.82;4.03;;;-3.10;99.90;;;;;;480718;245;27713;-77
2021/12/21 04:59:42;;;;;;;4.90;4.05;;;;;;;;;;480672;245;27175;-74
2021/12/21 05:01:43;;;;;;;6.05;4.20;;;-3.10;99.90;;;;;;480676;247;26773;-73
2021/12/21 05:03:45;;;;;;;8.02;3.50;;;-3.00;99.90;;;;;;480728;245;28098;-73
2021/12/21 05:05:46;;;;;;;6.10;4.22;;;-2.90;99.90;;;;;;480727;245;27604;-74
2021/12/21 05:07:53;;;;;;;6.10;3.78;;;;;;;;;;480690;245;27630;-73
2021/12/21 05:09:56;;;;;;;4.70;3.85;;;-2.90;99.90;;;;;;480308;247;26665;-74
2021/12/21 05:11:53;;;;;;;6.28;3.95;;;-2.90;99.90;;;;;;480119;247;27453;-74
2021/12/21 05:13:52;;;;;;;4.78;3.55;;;-3.00;99.90;;;;;;480650;247;27235;-74
2021/12/21 05:15:55;;;;;;;6.32;4.00;;;;;;;;;;480713;245;27613;-73
2021/12/21 05:17:56;;;;;;;6.55;3.60;;;-3.20;99.90;;;;;;480679;247;26642;-74
2021/12/21 05:19:57;;;;;;;4.35;3.50;;;-3.20;99.90;;;;;;480687;245;27141;-74
2021/12/21 05:21:58;;;;;;;9.05;4.53;;;-3.20;99.90;;;;;;480722;245;27218;-73
2021/12/21 05:24:00;;;;;;;4.55;3.78;;;-3.10;99.90;;;;;;480716;245;27291;-74
2021/12/21 05:26:01;;;;;;;5.50;4.22;;;-3.10;99.90;;;;;;480657;245;27599;-74
2021/12/21 05:28:03;;;;;;;5.82;3.67;;;;;;;;;;480696;245;27566;-75
2021/12/21 05:30:05;;;;;;;5.70;4.57;;;-3.10;99.90;;;;;;480666;247;26716;-74
2021/12/21 05:32:07;;;;;;;4.37;3.97;;;;;;;;;;480740;245;27310;-73
2021/12/21 05:34:09;;;;;;;5.45;3.87;;;;;;;;;;480703;247;26992;-74
2021/12/21 05:36:11;;;;;;;6.78;4.10;;;-3.20;99.90;;;;;;480719;247;26833;-73
2021/12/21 05:38:18;;;;;;;5.37;4.18;;;;;;;;;;480726;245;27812;-73
2021/12/21 05:40:16;;;;;;;8.23;4.22;;;-3.20;99.90;;;;;;480310;247;26751;-74
2021/12/21 05:42:16;;;;;;;7.70;4.80;;;-3.10;99.90;;;;;;480616;247;27532;-74
2021/12/21 05:44:17;;;;;;;4.50;3.67;;;-3.20;99.90;;;;;;480737;245;27327;-73
2021/12/21 05:46:18;;;;;;;4.65;3.60;;;-3.20;99.90;;;;;;480443;245;27454;-75
2021/12/21 05:48:21;;;;;;;5.40;4.00;;;;;;;;;;480521;245;28389;-74
2021/12/21 05:50:23;;;;;;;3.65;3.35;;;;;;;;;;480703;247;26614;-74
2021/12/21 05:52:24;;;;;;;5.43;4.37;;;-3.40;99.90;;;;;;480701;247;27166;-74
2021/12/21 05:54:25;;;;;;;5.62;3.80;;;-3.30;99.90;;;;;;480727;245;27032;-74
2021/12/21 05:56:27;;;;;;;4.43;4.03;;;-3.40;99.90;;;;;;480695;245;27172;-74
2021/12/21 05:58:28;;;;;;;9.70;4.47;;;-3.40;99.90;;;;;;480711;245;27049;-74
2021/12/21 06:00:29;;;;;;;5.15;3.87;;;-3.40;99.90;;;;;;480659;245;27117;-73
2021/12/21 06:02:30;;;;;;;5.80;3.70;;;-3.40;99.90;;;;;;480705;245;27557;-74
2021/12/21 06:04:32;;;;;;;6.60;4.45;;;-3.40;99.90;;;;;;480734;245;27487;-74
2021/12/21 06:06:33;;;;;;;5.12;4.12;;;-3.50;99.90;;;;;;480678;245;27102;-74
2021/12/21 06:08:34;;;;;;;6.53;4.43;;;-3.50;99.90;;;;;;480717;245;27610;-73
2021/12/21 06:10:40;;;;;;;6.05;4.03;;;-3.40;99.90;;;;;;480694;245;27621;-74
2021/12/21 06:12:58;;;;;;;5.00;4.10;;;-3.40;99.90;;;;;;480355;247;27714;-74
2021/12/21 06:26:08;;;;;;;8.18;5.25;;;-3.20;99.90;;;;;;485901;244;26569;-73
2021/12/21 06:28:05;;;;;;;9.38;5.10;;;-3.30;99.90;;;;;;485654;245;28309;-73
2021/12/21 06:30:08;;;;;;;7.07;4.90;;;;;;;;;;485979;245;27616;-73
2021/12/21 06:32:10;;;;;;;6.93;4.50;;;;;;;;;;485961;244;26518;-74
2021/12/21 06:34:11;;;;;;;7.45;4.70;;;-3.30;99.90;;;;;;485994;244;26594;-73
2021/12/21 06:36:12;;;;;;;5.22;4.35;;;-3.30;99.90;;;;;;485976;245;27004;-74
2021/12/21 06:38:14;;;;;;;5.57;4.28;;;-3.30;99.90;;;;;;486009;245;27441;-74
2021/12/21 06:40:15;;;;;;;8.65;4.60;;;-3.40;99.90;;;;;;485966;245;26994;-73
2021/12/21 06:42:16;;;;;;;4.93;4.35;;;-3.40;99.90;;;;;;485928;245;27026;-74
2021/12/21 06:44:19;;;;;;;6.65;4.95;;;;;;;;;;485990;245;27485;-74
2021/12/21 06:53:11;;;;;;;3.78;3.47;;;;;;;;;;485971;245;26629;-73
2021/12/21 06:55:13;;;;;;;4.75;3.45;;;;;;;;;;485991;244;26746;-73
2021/12/21 06:57:15;;;;;;;10.25;3.87;;;;;;;;;;485953;244;27030;-74
2021/12/21 06:59:18;;;;;;;5.10;3.60;;;;;;;;;;485973;244;26619;-75
2021/12/21 07:01:20;;;;;;;3.95;3.55;;;;;;;;;;485974;244;27410;-73
2021/12/21 07:03:21;;;;;;;4.55;3.53;;;-3.50;99.90;;;;;;485975;244;26818;-73
2021/12/21 07:05:24;;;;;;;3.95;3.30;;;;;;;;;;485961;240;26951;-73
2021/12/21 07:07:25;;;;;;;3.95;3.60;;;-3.50;99.90;;;;;;485969;244;26578;-73
2021/12/21 07:09:40;;;;;;;4.20;3.47;;;;;;;;;;485985;245;27062;-74
2021/12/21 07:11:43;;;;;;;4.35;3.70;;;;;;;;;;485407;245;27209;-74
2021/12/21 07:18:29;;;;;;;5.07;3.42;;;;;;;;;;485931;240;26657;-74
2021/12/21 07:20:26;;;;;;;4.75;3.75;;;-3.60;99.90;;;;;;485724;245;26761;-74
2021/12/21 07:22:29;;;;;;;5.05;3.78;;;;;;;;;;485917;245;26968;-73
2021/12/21 07:24:31;;;;;;;4.57;4.18;;;;;;;;;;480083;244;27106;-73
2021/12/21 07:26:33;;;;;;;5.15;3.60;;;;;;;;;;485792;241;26900;-74
2021/12/21 07:28:36;;;;;;;4.72;4.22;;;;;;;;;;485922;245;27191;-74
2021/12/21 07:30:37;;;;;;;4.85;4.07;;;-4.00;99.90;;;;;;485757;244;26733;-74
2021/12/21 07:32:40;;;;;;;8.15;4.47;;;;;;;;;;485930;241;27564;-74
2021/12/21 07:34:41;;;;;;;8.60;4.05;;;-4.10;99.90;;;;;;485987;244;26744;-73
2021/12/21 07:36:46;;;;;;;4.68;4.00;;;-4.00;99.90;;;;;;485914;245;27397;-74
2021/12/21 07:38:45;;;;;;;5.00;4.25;;;;;;;;;;485639;245;27501;-74
2021/12/21 07:40:46;;;;;;;3.78;3.47;;;-3.90;99.90;;;;;;485952;244;26710;-74
2021/12/21 07:42:49;;;;;;;4.75;4.18;;;;;;;;;;485886;245;27447;-74
2021/12/21 07:44:49;;;;;;;4.85;3.90;;;-3.80;99.90;;;;;;485926;244;27783;-74
2021/12/21 07:46:51;;;;;;;4.18;3.87;;;-3.80;99.90;;;;;;485989;245;27435;-75
2021/12/21 07:48:52;;;;;;;5.07;3.60;;;-3.80;99.90;;;;;;485963;245;27392;-74
2021/12/21 07:50:55;;;;;;;4.28;3.47;;;;;;;;;;485941;245;27530;-73
2021/12/21 07:53:00;;;;;;;4.97;3.55;;;;;;;;;;485930;245;27502;-74
2021/12/21 07:54:59;;;;;;;4.65;3.60;;;;;;;;;;485793;245;26562;-74
2021/12/21 07:57:00;;;;;;;4.50;3.90;;;-3.60;99.90;;;;;;485979;244;27006;-74
2021/12/21 07:59:04;;;;;;;6.97;3.60;;;;;;;;;;485950;245;27514;-74
2021/12/21 08:01:05;;;;;;;4.18;3.60;;;;;;;;;;485945;244;27047;-73
2021/12/21 08:03:07;;;;;;;3.92;3.40;;;-3.50;99.90;;;;;;485877;244;26809;-74
2021/12/21 08:05:09;;;;;;;5.55;3.53;;;;;;;;;;485930;245;27412;-74
2021/12/21 08:07:14;;;;;;;4.07;3.67;;;-3.40;99.90;;;;;;485832;244;27231;-73
2021/12/21 08:09:13;;;;;;;4.05;3.67;;;;;;;;;;485572;245;27476;-74
2021/12/21 08:11:27;;;;;;;4.75;4.28;;;-3.40;99.90;;;;;;485804;244;26512;-74
2021/12/21 08:13:15;;;;;;;4.45;3.70;;;-3.30;99.90;;;;;;485277;245;26995;-75
2021/12/21 08:15:16;;;;;;;5.10;3.62;;;-3.30;99.90;;;;;;485861;245;27417;-74
2021/12/21 08:17:19;;;;;;;8.18;4.05;;;;;;;;;;485990;245;27466;-73
2021/12/21 08:19:21;;;;;;;5.78;4.15;;;;;;;;;;486002;244;27081;-74
2021/12/21 08:21:24;;;;;;;8.43;5.40;;;-3.30;99.90;;;;;;486002;244;26641;-74
2021/12/21 08:23:24;;;;;;;6.03;4.85;;;-3.30;99.90;;;;;;485848;245;27072;-74
2021/12/21 08:25:26;;;;;;;5.53;4.93;;;-3.30;99.90;;;;;;485929;245;26969;-74
2021/12/21 08:27:28;;;;;;;5.85;4.80;;;;;;;;;;485944;245;27156;-74
2021/12/21 08:29:30;;;;;;;5.47;4.85;;;;;;;;;;485964;244;26972;-74
2021/12/21 08:31:31;;;;;;;7.22;5.03;;;-3.40;99.90;;;;;;485962;244;26573;-74
2021/12/21 08:33:34;;;;;;;8.48;5.20;;;;;;;;;;485983;245;27112;-74
2021/12/21 08:35:36;;;;;;;8.88;4.82;;;;;;;;;;485966;244;26496;-75
2021/12/21 08:37:37;;;;;;;7.35;4.55;;;-3.30;99.90;;;;;;485980;244;27073;-74
2021/12/21 08:39:40;;;;;;;5.80;4.05;;;-3.20;99.90;;;;;;485936;245;27867;-74
2021/12/21 08:41:43;;;;;;;5.75;4.35;;;;;;;;;;485922;245;28740;-74
2021/12/21 08:43:42;;;;;;;4.82;4.28;;;-3.10;99.90;;;;;;485870;245;26543;-75
2021/12/21 08:45:43;;;;;;;5.03;4.62;;;-3.00;99.90;;;;;;485820;245;27168;-75
2021/12/21 08:47:45;;;;;;;6.43;4.22;;;-3.00;99.90;;;;;;485953;245;27077;-73
2021/12/21 08:49:46;;;;;;;5.55;4.32;;;-2.90;99.90;;;;;;485999;245;28434;-78
2021/12/21 08:51:49;;;;;;;4.93;4.37;;;;;;;;;;485882;245;27417;-74
2021/12/21 08:53:50;;;;;;;5.70;5.03;;;-2.70;99.90;;;;;;485971;244;26522;-73
2021/12/21 08:55:51;;;;;;;7.20;5.32;;;-2.60;99.90;;;;;;486008;244;27108;-74
2021/12/21 08:57:52;;;;;;;5.93;4.90;;;-2.60;99.90;;;;;;485925;245;27072;-74
2021/12/21 08:59:53;;;;;;;6.43;5.22;;;-2.50;99.90;;;;;;485963;245;27638;-74
2021/12/21 09:01:55;;;;;;;9.23;5.50;;;-2.30;99.90;;;;;;485982;245;28913;-73
2021/12/21 09:03:57;;;;;;;9.70;5.40;;;-2.10;99.90;;;;;;485873;245;28880;-74
2021/12/21 09:05:58;;;;;;;9.70;5.90;;;-1.70;99.90;;;;;;485986;245;27065;-73
2021/12/21 09:07:58;;;;;;;8.25;5.25;;;-1.50;99.90;;;;;;485970;245;27317;-76
2021/12/21 09:10:00;;;;;;;10.38;5.07;;;-1.50;99.90;;;;;;486009;245;27198;-74
2021/12/21 09:12:01;;;;;;;7.32;4.55;;;-1.40;99.90;;;;;;485951;245;27312;-74
2021/12/21 09:14:02;;;;;;;8.38;5.68;;;-1.40;99.90;;;;;;485955;245;27478;-74
2021/12/21 09:16:03;;;;;;;9.75;5.05;;;-1.40;99.90;;;;;;485927;245;27080;-73
2021/12/21 09:18:05;;;;;;;9.93;5.07;;;-1.50;99.90;;;;;;485955;245;27876;-74
2021/12/21 09:20:06;;;;;;;9.85;5.35;;;-1.30;99.90;;;;;;485921;245;27617;-74
2021/12/21 09:22:07;;;;;;;8.52;5.78;;;-1.10;99.90;;;;;;485928;245;27839;-75
2021/12/21 09:24:09;;;;;;;9.55;5.30;;;-1.00;99.90;;;;;;485947;245;27539;-74
2021/12/21 09:26:10;;;;;;;9.07;4.70;;;-0.90;99.90;;;;;;486006;245;27383;-74
2021/12/21 09:28:11;;;;;;;8.18;5.60;;;-1.00;99.90;;;;;;485886;245;27463;-76
2021/12/21 09:30:12;;;;;;;14.00;5.45;;;-1.00;99.90;;;;;;485964;245;27388;-75
2021/12/21 09:32:15;;;;;;;11.07;4.65;;;-1.00;99.90;;;;;;485934;245;27435;-74
2021/12/21 09:34:15;;;;;;;6.15;5.03;;;-1.00;99.90;;;;;;485924;245;27460;-74
2021/12/21 09:36:16;;;;;;;11.00;5.30;;;-0.90;99.90;;;;;;485947;245;27428;-75
2021/12/21 09:38:17;;;;;;;9.43;4.93;;;-0.90;99.90;;;;;;485960;245;28024;-74
2021/12/21 09:40:19;;;;;;;8.80;4.90;;;-0.80;99.90;;;;;;485885;245;29059;-74
2021/12/21 09:42:20;;;;;;;12.57;5.22;;;-0.80;99.90;;;;;;485960;245;27398;-74
2021/12/21 09:44:21;;;;;;;8.20;5.07;;;-0.70;99.90;;;;;;485975;245;27518;-74
2021/12/21 09:46:22;;;;;;;10.15;4.72;;;-0.70;99.90;;;;;;485969;245;27482;-74
2021/12/21 09:48:25;;;;;;;12.50;5.22;;;-0.60;99.90;;;;;;486019;245;27498;-75
2021/12/21 09:50:25;;;;;;;13.60;5.37;;;-0.50;99.90;;;;;;485953;245;27398;-74
2021/12/21 09:52:29;;;;;;;9.15;5.80;;;-0.50;99.90;;;;;;485905;245;27387;-74
2021/12/21 09:54:27;;;;;;;7.57;5.50;;;-0.50;99.90;;;;;;485833;245;27918;-74
2021/12/21 09:56:29;;;;;;;7.97;5.80;;;-0.50;99.90;;;;;;485929;245;27929;-74
2021/12/21 09:58:30;;;;;;;7.20;5.37;;;-0.50;99.90;;;;;;485971;245;27910;-74
2021/12/21 10:00:34;;;;;;;7.85;5.20;;;-0.40;99.90;;;;;;486028;244;27543;-74
2021/12/21 10:02:34;;;;;;;6.60;5.05;;;-0.30;99.90;;;;;;485708;245;27395;-74
2021/12/21 10:04:34;;;;;;;15.18;5.50;;;-0.30;99.90;;;;;;485791;245;27451;-75
2021/12/21 10:06:35;;;;;;;10.73;5.70;;;-0.20;99.90;;;;;;485824;245;27407;-74
2021/12/21 10:08:36;;;;;;;10.75;4.32;;;-0.20;99.90;;;;;;485951;244;27397;-74
2021/12/21 10:10:38;;;;;;;9.23;5.03;;;-0.20;99.90;;;;;;485975;245;27934;-75
2021/12/21 10:12:39;;;;;;;9.45;5.12;;;-0.20;99.90;;;;;;485952;245;27855;-74
2021/12/21 10:14:40;;;;;;;5.72;4.50;;;-0.20;99.90;;;;;;485945;245;29029;-74
2021/12/21 10:16:41;;;;;;;8.32;4.80;;;-0.10;99.90;;;;;;485908;245;27447;-76
2021/12/21 10:18:43;;;;;;;8.95;4.97;;;-0.10;99.90;;;;;;485968;245;27476;-74
2021/12/21 10:20:44;;;;;;;7.65;4.78;;;-0.10;99.90;;;;;;485995;245;27427;-74
2021/12/21 10:22:45;;;;;;;6.12;4.90;;;0.00;99.90;;;;;;485960;245;27464;-75
2021/12/21 10:24:46;;;;;;;8.05;4.32;;;0.10;99.90;;;;;;485978;245;27447;-74
2021/12/21 10:26:48;;;;;;;7.72;4.95;;;0.10;99.90;;;;;;485965;245;27485;-74
2021/12/21 10:28:49;;;;;;;9.20;5.07;;;0.10;99.90;;;;;;485892;245;27393;-74
2021/12/21 10:30:50;;;;;;;7.62;5.40;;;0.20;99.90;;;;;;485980;245;27424;-74
2021/12/21 10:32:51;;;;;;;8.80;5.03;;;0.20;99.90;;;;;;485990;245;27443;-74
2021/12/21 10:34:53;;;;;;;9.18;5.22;;;0.20;99.90;;;;;;485975;245;28024;-74
2021/12/21 10:36:54;;;;;;;8.05;4.80;;;0.20;99.90;;;;;;485965;245;28753;-74
2021/12/21 10:38:56;;;;;;;6.30;4.70;;;0.30;99.90;;;;;;485967;244;27862;-74
2021/12/21 10:40:56;;;;;;;7.03;4.97;;;0.30;99.90;;;;;;485865;245;27898;-74
2021/12/21 10:42:58;;;;;;;7.45;5.10;;;0.30;99.90;;;;;;485949;245;27387;-74
2021/12/21 10:44:59;;;;;;;9.75;4.47;;;0.30;99.90;;;;;;485901;245;27532;-74
2021/12/21 10:47:00;;;;;;;6.50;4.32;;;0.40;99.90;;;;;;485974;245;27431;-74
2021/12/21 10:49:01;;;;;;;5.50;3.85;;;0.40;99.90;;;;;;485983;245;27427;-74
2021/12/21 10:51:03;;;;;;;5.62;4.20;;;0.30;99.90;;;;;;485965;245;27554;-74
2021/12/21 10:53:04;;;;;;;7.40;4.50;;;0.40;99.90;;;;;;485887;245;27483;-74
2021/12/21 10:55:05;;;;;;;5.30;4.35;;;0.50;99.90;;;;;;485908;245;27514;-74
2021/12/21 10:57:06;;;;;;;8.75;4.70;;;0.50;99.90;;;;;;485966;245;27543;-75
2021/12/21 10:59:08;;;;;;;6.82;4.80;;;0.50;99.90;;;;;;485929;245;27817;-74
2021/12/21 11:01:09;;;;;;;8.68;4.75;;;0.50;99.90;;;;;;485967;245;27895;-74
2021/12/21 11:03:10;;;;;;;6.40;4.18;;;0.50;99.90;;;;;;485942;245;27836;-74
2021/12/21 11:05:11;;;;;;;7.72;4.70;;;0.50;99.90;;;;;;485904;245;27921;-75
2021/12/21 11:07:26;;;;;;;8.38;4.28;;;0.50;99.90;;;;;;485944;241;27462;-76
2021/12/21 11:09:23;;;;;;;7.10;4.72;;;0.60;99.90;;;;;;485594;245;27388;-74
2021/12/21 11:11:22;;;;;;;8.30;4.07;;;0.70;99.90;;;;;;485743;245;27443;-74
2021/12/21 11:13:23;;;;;;;10.30;4.80;;;0.60;99.90;;;;;;485950;244;27556;-74
2021/12/21 11:15:29;;;;;;;8.35;4.82;;;0.70;99.90;;;;;;485948;245;27468;-74
2021/12/21 11:17:25;;;;;;;6.20;4.50;;;0.60;99.90;;;;;;485578;245;27432;-75
2021/12/21 11:19:26;;;;;;;7.95;4.78;;;0.70;99.90;;;;;;485943;245;27502;-75
2021/12/21 11:21:28;;;;;;;12.75;5.55;;;0.70;99.90;;;;;;485966;245;27461;-74
2021/12/21 11:23:29;;;;;;;8.23;4.43;;;0.80;99.90;;;;;;485927;245;27946;-74
2021/12/21 11:25:30;;;;;;;4.25;3.85;;;0.90;99.90;;;;;;485976;245;27407;-74
2021/12/21 11:27:31;;;;;;;5.37;4.45;;;0.90;99.90;;;;;;485949;245;27991;-73
2021/12/21 11:29:34;;;;;;;10.68;3.95;;;0.90;99.90;;;;;;485925;245;27914;-74
2021/12/21 11:31:34;;;;;;;8.82;4.15;;;1.00;99.90;;;;;;485879;245;27920;-74
2021/12/21 11:33:39;;;;;;;8.40;4.28;;;1.00;99.90;;;;;;485919;245;27890;-74
2021/12/21 11:37:38;;;;;;;6.10;3.80;;;1.00;99.90;;;;;;485986;245;27547;-73
2021/12/21 11:39:39;;;;;;;8.20;3.80;;;1.10;99.90;;;;;;485947;245;27387;-75
2021/12/21 11:41:40;;;;;;;5.07;3.20;;;1.20;99.90;;;;;;485956;245;27470;-74